sensor_id;sensor_type;location;lat;lon;timestamp;pressure;altitude;pressure_sealevel;temperature;humidity
68179;BME280;54998;42.656;23.382;2022-12-05T00:00:58;95815.22;;;2.85;85.02
68179;BME280;54998;42.656;23.382;2022-12-05T00:03:25;95815.28;;;2.83;84.95
68179;BME280;54998;42.656;23.382;2022-12-05T00:05:51;95812.97;;;2.79;85.05
68179;BME280;54998;42.656;23.382;2022-12-05T00:08:16;95825.56;;;2.80;85.14
68179;BME280;54998;42.656;23.382;2022-12-05T00:10:42;95820.41;;;2.82;85.37
68179;BME280;54998;42.656;23.382;2022-12-05T00:13:07;95829.84;;;2.80;84.96
68179;BME280;54998;42.656;23.382;2022-12-05T00:15:38;95828.94;;;2.81;85.26
68179;BME280;54998;42.656;23.382;2022-12-05T00:18:03;95826.59;;;2.76;85.35
68179;BME280;54998;42.656;23.382;2022-12-05T00:20:29;95822.06;;;2.64;85.77
68179;BME280;54998;42.656;23.382;2022-12-05T00:22:54;95819.47;;;2.65;85.90
68179;BME280;54998;42.656;23.382;2022-12-05T00:25:19;95829.75;;;2.62;86.37
68179;BME280;54998;42.656;23.382;2022-12-05T00:27:45;95834.69;;;2.65;86.32
68179;BME280;54998;42.656;23.382;2022-12-05T00:30:10;95826.88;;;2.70;86.07
68179;BME280;54998;42.656;23.382;2022-12-05T00:32:36;95828.53;;;2.71;86.24
68179;BME280;54998;42.656;23.382;2022-12-05T00:35:01;95831.53;;;2.60;86.49
68179;BME280;54998;42.656;23.382;2022-12-05T00:37:26;95829.06;;;2.59;86.37
68179;BME280;54998;42.656;23.382;2022-12-05T00:39:52;95838.03;;;2.66;86.15
68179;BME280;54998;42.656;23.382;2022-12-05T00:42:17;95835.91;;;2.57;86.47
68179;BME280;54998;42.656;23.382;2022-12-05T00:44:43;95837.00;;;2.51;86.54
68179;BME280;54998;42.656;23.382;2022-12-05T00:47:08;95832.81;;;2.50;86.74
68179;BME280;54998;42.656;23.382;2022-12-05T00:49:33;95838.50;;;2.55;86.55
68179;BME280;54998;42.656;23.382;2022-12-05T00:51:59;95836.03;;;2.54;86.94
68179;BME280;54998;42.656;23.382;2022-12-05T00:54:24;95825.88;;;2.54;86.91
68179;BME280;54998;42.656;23.382;2022-12-05T00:56:50;95835.66;;;2.63;87.05
68179;BME280;54998;42.656;23.382;2022-12-05T00:59:20;95825.22;;;2.50;87.22
68179;BME280;54998;42.656;23.382;2022-12-05T01:01:47;95824.06;;;2.57;86.77
68179;BME280;54998;42.656;23.382;2022-12-05T01:04:16;95823.03;;;2.61;86.85
68179;BME280;54998;42.656;23.382;2022-12-05T01:06:42;95817.91;;;2.63;86.70
68179;BME280;54998;42.656;23.382;2022-12-05T01:09:10;95811.38;;;2.57;86.76
68179;BME280;54998;42.656;23.382;2022-12-05T01:11:36;95810.63;;;2.55;87.42
68179;BME280;54998;42.656;23.382;2022-12-05T01:14:02;95814.13;;;2.53;87.31
68179;BME280;54998;42.656;23.382;2022-12-05T01:16:31;95818.78;;;2.62;87.25
68179;BME280;54998;42.656;23.382;2022-12-05T01:18:58;95812.56;;;2.69;86.92
68179;BME280;54998;42.656;23.382;2022-12-05T01:21:24;95812.34;;;2.74;87.00
68179;BME280;54998;42.656;23.382;2022-12-05T01:23:50;95817.50;;;2.72;86.97
68179;BME280;54998;42.656;23.382;2022-12-05T01:26:19;95824.63;;;2.83;86.41
68179;BME280;54998;42.656;23.382;2022-12-05T01:28:45;95816.94;;;2.84;86.27
68179;BME280;54998;42.656;23.382;2022-12-05T01:31:34;95808.84;;;2.95;85.93
68179;BME280;54998;42.656;23.382;2022-12-05T01:34:03;95799.75;;;2.91;85.96
68179;BME280;54998;42.656;23.382;2022-12-05T01:36:28;95797.25;;;2.90;85.78
68179;BME280;54998;42.656;23.382;2022-12-05T01:38:54;95797.69;;;2.80;86.07
68179;BME280;54998;42.656;23.382;2022-12-05T01:41:29;95799.59;;;2.94;86.28
68179;BME280;54998;42.656;23.382;2022-12-05T01:46:20;95789.31;;;2.97;85.92
68179;BME280;54998;42.656;23.382;2022-12-05T01:48:46;95792.72;;;2.96;85.97
68179;BME280;54998;42.656;23.382;2022-12-05T01:51:12;95782.88;;;2.90;86.16
68179;BME280;54998;42.656;23.382;2022-12-05T01:53:37;95775.25;;;2.90;85.88
68179;BME280;54998;42.656;23.382;2022-12-05T01:56:03;95777.41;;;2.80;86.33
68179;BME280;54998;42.656;23.382;2022-12-05T01:58:33;95781.66;;;2.80;86.32
68179;BME280;54998;42.656;23.382;2022-12-05T02:01:01;95786.16;;;2.73;86.63
68179;BME280;54998;42.656;23.382;2022-12-05T02:03:26;95793.84;;;2.72;86.55
68179;BME280;54998;42.656;23.382;2022-12-05T02:05:54;95789.13;;;2.83;86.71
68179;BME280;54998;42.656;23.382;2022-12-05T02:08:21;95779.66;;;2.86;86.37
68179;BME280;54998;42.656;23.382;2022-12-05T02:10:51;95784.66;;;2.88;86.41
68179;BME280;54998;42.656;23.382;2022-12-05T02:17:13;95797.03;;;2.94;86.05
68179;BME280;54998;42.656;23.382;2022-12-05T02:28:07;95793.41;;;3.00;85.96
68179;BME280;54998;42.656;23.382;2022-12-05T02:36:25;95783.84;;;3.24;85.49
68179;BME280;54998;42.656;23.382;2022-12-05T02:44:42;95787.06;;;3.27;84.49
68179;BME280;54998;42.656;23.382;2022-12-05T02:47:08;95781.75;;;3.15;84.78
68179;BME280;54998;42.656;23.382;2022-12-05T02:49:38;95774.94;;;3.15;84.98
68179;BME280;54998;42.656;23.382;2022-12-05T02:52:11;95773.03;;;3.01;84.82
68179;BME280;54998;42.656;23.382;2022-12-05T02:54:40;95774.25;;;3.12;84.87
68179;BME280;54998;42.656;23.382;2022-12-05T02:57:07;95768.09;;;3.17;84.68
68179;BME280;54998;42.656;23.382;2022-12-05T02:59:34;95763.38;;;3.27;84.56
68179;BME280;54998;42.656;23.382;2022-12-05T03:01:59;95762.41;;;3.29;84.01
68179;BME280;54998;42.656;23.382;2022-12-05T03:04:25;95765.63;;;3.33;84.17
68179;BME280;54998;42.656;23.382;2022-12-05T03:06:55;95767.41;;;3.31;84.20
68179;BME280;54998;42.656;23.382;2022-12-05T03:09:29;95767.06;;;3.21;84.38
68179;BME280;54998;42.656;23.382;2022-12-05T03:12:13;95765.78;;;3.30;84.03
68179;BME280;54998;42.656;23.382;2022-12-05T03:14:47;95766.09;;;3.24;83.88
68179;BME280;54998;42.656;23.382;2022-12-05T03:17:17;95765.50;;;3.36;84.13
68179;BME280;54998;42.656;23.382;2022-12-05T03:19:48;95768.03;;;3.36;83.91
68179;BME280;54998;42.656;23.382;2022-12-05T03:24:49;95771.16;;;3.41;83.67
68179;BME280;54998;42.656;23.382;2022-12-05T03:32:34;95773.94;;;3.37;83.23
68179;BME280;54998;42.656;23.382;2022-12-05T03:40:36;95774.53;;;3.42;83.02
68179;BME280;54998;42.656;23.382;2022-12-05T03:43:09;95773.31;;;3.49;82.66
68179;BME280;54998;42.656;23.382;2022-12-05T03:45:51;95776.09;;;3.44;82.54
68179;BME280;54998;42.656;23.382;2022-12-05T03:48:38;95770.94;;;3.46;82.49
68179;BME280;54998;42.656;23.382;2022-12-05T03:51:09;95770.25;;;3.42;82.55
68179;BME280;54998;42.656;23.382;2022-12-05T03:53:47;95773.25;;;3.33;82.53
68179;BME280;54998;42.656;23.382;2022-12-05T03:56:18;95787.59;;;3.34;82.64
68179;BME280;54998;42.656;23.382;2022-12-05T03:59:07;95779.06;;;3.35;82.66
68179;BME280;54998;42.656;23.382;2022-12-05T04:01:37;95778.91;;;3.38;82.77
68179;BME280;54998;42.656;23.382;2022-12-05T04:04:11;95774.38;;;3.45;82.44
68179;BME280;54998;42.656;23.382;2022-12-05T04:06:39;95780.56;;;3.39;83.01
68179;BME280;54998;42.656;23.382;2022-12-05T04:09:14;95776.00;;;3.28;83.26
68179;BME280;54998;42.656;23.382;2022-12-05T04:11:48;95777.28;;;3.37;82.98
68179;BME280;54998;42.656;23.382;2022-12-05T04:14:27;95778.72;;;3.43;83.11
68179;BME280;54998;42.656;23.382;2022-12-05T04:17:03;95775.34;;;3.42;82.91
68179;BME280;54998;42.656;23.382;2022-12-05T04:22:36;95774.56;;;3.23;83.56
68179;BME280;54998;42.656;23.382;2022-12-05T04:25:04;95761.75;;;3.26;83.57
68179;BME280;54998;42.656;23.382;2022-12-05T04:30:21;95762.50;;;3.28;83.75
68179;BME280;54998;42.656;23.382;2022-12-05T04:33:04;95765.41;;;3.20;84.44
68179;BME280;54998;42.656;23.382;2022-12-05T04:35:51;95765.34;;;3.22;84.31
68179;BME280;54998;42.656;23.382;2022-12-05T04:41:10;95765.25;;;3.23;84.53
68179;BME280;54998;42.656;23.382;2022-12-05T04:43:39;95759.97;;;3.28;84.38
68179;BME280;54998;42.656;23.382;2022-12-05T04:46:08;95778.69;;;3.25;84.08
68179;BME280;54998;42.656;23.382;2022-12-05T04:48:37;95777.72;;;3.28;83.92
68179;BME280;54998;42.656;23.382;2022-12-05T04:51:06;95775.50;;;3.39;83.68
68179;BME280;54998;42.656;23.382;2022-12-05T04:53:35;95782.56;;;3.33;83.49
68179;BME280;54998;42.656;23.382;2022-12-05T04:56:17;95784.88;;;3.20;83.90
68179;BME280;54998;42.656;23.382;2022-12-05T04:58:49;95788.16;;;3.22;83.96
68179;BME280;54998;42.656;23.382;2022-12-05T05:01:21;95790.31;;;3.29;83.83
68179;BME280;54998;42.656;23.382;2022-12-05T05:03:59;95783.56;;;3.30;83.54
68179;BME280;54998;42.656;23.382;2022-12-05T05:06:27;95790.63;;;3.23;83.68
68179;BME280;54998;42.656;23.382;2022-12-05T05:08:55;95793.81;;;3.09;84.33
68179;BME280;54998;42.656;23.382;2022-12-05T05:11:25;95790.91;;;3.17;84.54
68179;BME280;54998;42.656;23.382;2022-12-05T05:13:52;95794.81;;;3.24;84.36
68179;BME280;54998;42.656;23.382;2022-12-05T05:16:23;95793.59;;;3.32;83.95
68179;BME280;54998;42.656;23.382;2022-12-05T05:18:50;95803.75;;;3.32;83.93
68179;BME280;54998;42.656;23.382;2022-12-05T05:23:46;95806.91;;;3.37;83.70
68179;BME280;54998;42.656;23.382;2022-12-05T05:26:12;95814.59;;;3.35;83.92
68179;BME280;54998;42.656;23.382;2022-12-05T05:28:38;95810.09;;;3.40;83.60
68179;BME280;54998;42.656;23.382;2022-12-05T05:31:04;95804.16;;;3.41;83.34
68179;BME280;54998;42.656;23.382;2022-12-05T05:33:30;95816.69;;;3.44;83.50
68179;BME280;54998;42.656;23.382;2022-12-05T05:35:56;95817.31;;;3.49;83.10
68179;BME280;54998;42.656;23.382;2022-12-05T05:38:22;95811.19;;;3.54;82.92
68179;BME280;54998;42.656;23.382;2022-12-05T05:40:47;95796.84;;;3.53;82.61
68179;BME280;54998;42.656;23.382;2022-12-05T05:43:13;95797.75;;;3.52;82.57
68179;BME280;54998;42.656;23.382;2022-12-05T05:45:38;95804.31;;;3.56;82.68
68179;BME280;54998;42.656;23.382;2022-12-05T05:48:04;95807.06;;;3.51;82.75
68179;BME280;54998;42.656;23.382;2022-12-05T05:50:29;95801.97;;;3.51;82.74
68179;BME280;54998;42.656;23.382;2022-12-05T05:52:55;95808.84;;;3.49;83.28
68179;BME280;54998;42.656;23.382;2022-12-05T05:55:20;95813.28;;;3.63;82.71
68179;BME280;54998;42.656;23.382;2022-12-05T05:57:45;95812.06;;;3.70;82.42
68179;BME280;54998;42.656;23.382;2022-12-05T06:00:11;95819.16;;;3.63;82.20
68179;BME280;54998;42.656;23.382;2022-12-05T06:02:37;95822.28;;;3.68;82.26
68179;BME280;54998;42.656;23.382;2022-12-05T06:05:03;95809.47;;;3.72;81.76
68179;BME280;54998;42.656;23.382;2022-12-05T06:07:29;95829.03;;;3.69;81.71
68179;BME280;54998;42.656;23.382;2022-12-05T06:09:54;95823.72;;;3.74;82.02
68179;BME280;54998;42.656;23.382;2022-12-05T06:12:20;95832.59;;;3.83;81.68
68179;BME280;54998;42.656;23.382;2022-12-05T06:14:49;95825.50;;;3.72;81.57
68179;BME280;54998;42.656;23.382;2022-12-05T06:17:15;95841.03;;;3.83;81.54
68179;BME280;54998;42.656;23.382;2022-12-05T06:19:40;95831.63;;;3.85;81.20
68179;BME280;54998;42.656;23.382;2022-12-05T06:22:05;95835.84;;;3.86;81.42
68179;BME280;54998;42.656;23.382;2022-12-05T06:24:31;95834.34;;;3.82;81.09
68179;BME280;54998;42.656;23.382;2022-12-05T06:26:56;95828.63;;;3.77;81.30
68179;BME280;54998;42.656;23.382;2022-12-05T06:29:21;95831.88;;;3.81;81.41
68179;BME280;54998;42.656;23.382;2022-12-05T06:31:47;95830.38;;;3.77;81.46
68179;BME280;54998;42.656;23.382;2022-12-05T06:34:12;95828.22;;;3.86;81.29
68179;BME280;54998;42.656;23.382;2022-12-05T06:36:38;95826.50;;;3.87;81.23
68179;BME280;54998;42.656;23.382;2022-12-05T06:39:04;95836.25;;;3.95;80.70
68179;BME280;54998;42.656;23.382;2022-12-05T06:41:29;95838.16;;;3.91;81.05
68179;BME280;54998;42.656;23.382;2022-12-05T06:43:57;95837.31;;;3.90;81.21
68179;BME280;54998;42.656;23.382;2022-12-05T06:46:23;95837.53;;;3.86;80.95
68179;BME280;54998;42.656;23.382;2022-12-05T06:48:53;95841.22;;;3.80;80.68
68179;BME280;54998;42.656;23.382;2022-12-05T06:51:19;95842.03;;;3.81;80.70
68179;BME280;54998;42.656;23.382;2022-12-05T06:53:44;95850.16;;;3.70;81.30
68179;BME280;54998;42.656;23.382;2022-12-05T06:56:13;95840.38;;;3.80;80.73
68179;BME280;54998;42.656;23.382;2022-12-05T06:58:40;95837.47;;;3.70;81.19
68179;BME280;54998;42.656;23.382;2022-12-05T07:01:12;95839.34;;;3.84;81.06
68179;BME280;54998;42.656;23.382;2022-12-05T07:03:57;95829.09;;;3.85;81.06
68179;BME280;54998;42.656;23.382;2022-12-05T07:06:23;95833.19;;;3.88;80.91
68179;BME280;54998;42.656;23.382;2022-12-05T07:08:48;95839.63;;;3.95;80.74
68179;BME280;54998;42.656;23.382;2022-12-05T07:11:14;95843.88;;;3.95;80.72
68179;BME280;54998;42.656;23.382;2022-12-05T07:13:39;95840.00;;;3.87;81.16
68179;BME280;54998;42.656;23.382;2022-12-05T07:16:05;95836.72;;;3.85;81.21
68179;BME280;54998;42.656;23.382;2022-12-05T07:18:31;95855.28;;;3.68;81.32
68179;BME280;54998;42.656;23.382;2022-12-05T07:21:09;95841.94;;;3.82;81.23
68179;BME280;54998;42.656;23.382;2022-12-05T07:23:36;95835.72;;;3.88;81.22
68179;BME280;54998;42.656;23.382;2022-12-05T07:26:05;95845.47;;;3.97;80.58
68179;BME280;54998;42.656;23.382;2022-12-05T07:28:31;95839.72;;;3.94;80.67
68179;BME280;54998;42.656;23.382;2022-12-05T07:31:02;95841.44;;;3.93;81.21
68179;BME280;54998;42.656;23.382;2022-12-05T07:33:28;95847.69;;;4.03;80.36
68179;BME280;54998;42.656;23.382;2022-12-05T07:35:58;95858.22;;;4.13;80.02
68179;BME280;54998;42.656;23.382;2022-12-05T07:38:24;95859.19;;;4.10;79.79
68179;BME280;54998;42.656;23.382;2022-12-05T07:40:50;95859.13;;;3.95;80.26
68179;BME280;54998;42.656;23.382;2022-12-05T07:43:15;95854.34;;;3.88;80.41
68179;BME280;54998;42.656;23.382;2022-12-05T07:45:40;95857.03;;;4.03;80.50
68179;BME280;54998;42.656;23.382;2022-12-05T07:48:06;95858.53;;;4.07;80.22
68179;BME280;54998;42.656;23.382;2022-12-05T07:50:31;95862.31;;;4.16;79.87
68179;BME280;54998;42.656;23.382;2022-12-05T07:52:56;95860.97;;;4.26;79.62
68179;BME280;54998;42.656;23.382;2022-12-05T07:55:22;95857.28;;;4.31;78.73
68179;BME280;54998;42.656;23.382;2022-12-05T07:57:47;95865.66;;;4.33;78.93
68179;BME280;54998;42.656;23.382;2022-12-05T08:00:13;95860.56;;;4.33;78.20
68179;BME280;54998;42.656;23.382;2022-12-05T08:02:39;95854.66;;;4.33;78.80
68179;BME280;54998;42.656;23.382;2022-12-05T08:05:04;95853.41;;;4.24;79.03
68179;BME280;54998;42.656;23.382;2022-12-05T08:07:30;95854.41;;;4.22;79.55
68179;BME280;54998;42.656;23.382;2022-12-05T08:09:55;95851.03;;;4.21;79.32
68179;BME280;54998;42.656;23.382;2022-12-05T08:12:21;95858.63;;;4.39;79.42
68179;BME280;54998;42.656;23.382;2022-12-05T08:14:46;95853.16;;;4.46;79.02
68179;BME280;54998;42.656;23.382;2022-12-05T08:17:11;95854.81;;;4.63;77.85
68179;BME280;54998;42.656;23.382;2022-12-05T08:19:37;95853.16;;;4.80;76.50
68179;BME280;54998;42.656;23.382;2022-12-05T08:22:02;95851.59;;;4.93;75.59
68179;BME280;54998;42.656;23.382;2022-12-05T08:24:28;95858.97;;;4.82;76.62
68179;BME280;54998;42.656;23.382;2022-12-05T08:26:53;95855.06;;;4.59;77.50
68179;BME280;54998;42.656;23.382;2022-12-05T08:29:20;95855.75;;;4.78;76.66
68179;BME280;54998;42.656;23.382;2022-12-05T08:31:48;95863.88;;;4.85;75.29
68179;BME280;54998;42.656;23.382;2022-12-05T08:34:16;95864.31;;;4.77;73.95
68179;BME280;54998;42.656;23.382;2022-12-05T08:36:42;95847.25;;;4.95;73.50
68179;BME280;54998;42.656;23.382;2022-12-05T08:39:11;95858.72;;;4.86;73.86
68179;BME280;54998;42.656;23.382;2022-12-05T08:41:39;95856.56;;;4.79;74.08
68179;BME280;54998;42.656;23.382;2022-12-05T08:44:05;95838.44;;;4.85;74.29
68179;BME280;54998;42.656;23.382;2022-12-05T08:46:33;95852.00;;;5.01;73.87
68179;BME280;54998;42.656;23.382;2022-12-05T08:49:01;95845.50;;;5.11;73.58
68179;BME280;54998;42.656;23.382;2022-12-05T08:51:27;95844.28;;;5.19;73.82
68179;BME280;54998;42.656;23.382;2022-12-05T08:53:52;95848.91;;;5.12;73.52
68179;BME280;54998;42.656;23.382;2022-12-05T08:56:20;95854.94;;;5.09;73.65
68179;BME280;54998;42.656;23.382;2022-12-05T08:58:46;95847.09;;;5.14;73.96
68179;BME280;54998;42.656;23.382;2022-12-05T09:01:14;95847.00;;;5.31;73.40
68179;BME280;54998;42.656;23.382;2022-12-05T09:03:41;95852.00;;;5.17;74.21
68179;BME280;54998;42.656;23.382;2022-12-05T09:06:13;95838.88;;;5.25;73.53
68179;BME280;54998;42.656;23.382;2022-12-05T09:08:39;95856.41;;;5.45;73.15
68179;BME280;54998;42.656;23.382;2022-12-05T09:11:11;95852.94;;;5.62;72.67
68179;BME280;54998;42.656;23.382;2022-12-05T09:13:37;95850.09;;;5.37;72.53
68179;BME280;54998;42.656;23.382;2022-12-05T09:16:07;95851.88;;;5.50;72.46
68179;BME280;54998;42.656;23.382;2022-12-05T09:18:33;95844.53;;;5.30;73.55
68179;BME280;54998;42.656;23.382;2022-12-05T09:21:13;95847.53;;;5.52;73.10
68179;BME280;54998;42.656;23.382;2022-12-05T09:23:40;95833.50;;;5.45;73.43
68179;BME280;54998;42.656;23.382;2022-12-05T09:26:06;95839.22;;;5.65;72.71
68179;BME280;54998;42.656;23.382;2022-12-05T09:28:33;95830.66;;;5.66;72.58
68179;BME280;54998;42.656;23.382;2022-12-05T09:31:04;95836.13;;;5.90;72.07
68179;BME280;54998;42.656;23.382;2022-12-05T09:33:31;95834.16;;;5.95;71.11
68179;BME280;54998;42.656;23.382;2022-12-05T09:35:58;95832.34;;;5.97;70.04
68179;BME280;54998;42.656;23.382;2022-12-05T09:38:23;95830.75;;;5.64;70.24
68179;BME280;54998;42.656;23.382;2022-12-05T09:41:05;95836.81;;;5.78;70.73
68179;BME280;54998;42.656;23.382;2022-12-05T10:32:50;95794.91;;;5.67;71.64
68179;BME280;54998;42.656;23.382;2022-12-05T10:37:45;95798.88;;;5.87;70.85
68179;BME280;54998;42.656;23.382;2022-12-05T10:40:11;95789.59;;;5.86;71.11
68179;BME280;54998;42.656;23.382;2022-12-05T10:42:37;95781.88;;;5.88;71.20
68179;BME280;54998;42.656;23.382;2022-12-05T10:45:06;95786.31;;;5.84;71.06
68179;BME280;54998;42.656;23.382;2022-12-05T10:47:34;95783.47;;;6.05;70.60
68179;BME280;54998;42.656;23.382;2022-12-05T10:50:04;95778.34;;;5.90;70.61
68179;BME280;54998;42.656;23.382;2022-12-05T10:52:30;95779.06;;;5.92;71.33
68179;BME280;54998;42.656;23.382;2022-12-05T10:54:59;95758.16;;;6.02;70.72
68179;BME280;54998;42.656;23.382;2022-12-05T10:57:27;95775.28;;;6.14;70.32
68179;BME280;54998;42.656;23.382;2022-12-05T10:59:55;95782.38;;;5.94;71.04
68179;BME280;54998;42.656;23.382;2022-12-05T11:02:26;95776.28;;;5.81;71.48
68179;BME280;54998;42.656;23.382;2022-12-05T11:04:53;95767.94;;;5.79;71.50
68179;BME280;54998;42.656;23.382;2022-12-05T11:10:27;95767.00;;;5.66;72.17
68179;BME280;54998;42.656;23.382;2022-12-05T11:12:56;95766.25;;;5.64;72.18
68179;BME280;54998;42.656;23.382;2022-12-05T11:15:24;95772.06;;;5.66;71.91
68179;BME280;54998;42.656;23.382;2022-12-05T11:17:53;95769.16;;;5.58;72.38
68179;BME280;54998;42.656;23.382;2022-12-05T11:22:49;95765.25;;;5.52;72.35
68179;BME280;54998;42.656;23.382;2022-12-05T11:25:41;95760.66;;;5.43;73.05
68179;BME280;54998;42.656;23.382;2022-12-05T11:33:22;95751.09;;;5.32;73.81
68179;BME280;54998;42.656;23.382;2022-12-05T11:35:49;95747.25;;;5.25;73.69
68179;BME280;54998;42.656;23.382;2022-12-05T11:38:17;95745.66;;;5.38;73.40
68179;BME280;54998;42.656;23.382;2022-12-05T11:40:52;95744.44;;;5.29;73.37
68179;BME280;54998;42.656;23.382;2022-12-05T11:43:48;95735.63;;;5.35;73.41
68179;BME280;54998;42.656;23.382;2022-12-05T11:50:07;95725.91;;;5.27;73.55
68179;BME280;54998;42.656;23.382;2022-12-05T11:53:00;95715.78;;;5.26;74.08
68179;BME280;54998;42.656;23.382;2022-12-05T12:03:16;95713.25;;;5.26;74.16
68179;BME280;54998;42.656;23.382;2022-12-05T12:11:30;95712.84;;;5.18;74.65
68179;BME280;54998;42.656;23.382;2022-12-05T12:17:04;95706.16;;;5.17;75.04
68179;BME280;54998;42.656;23.382;2022-12-05T12:22:26;95701.47;;;5.09;75.55
68179;BME280;54998;42.656;23.382;2022-12-05T12:30:44;95689.44;;;5.27;74.84
68179;BME280;54998;42.656;23.382;2022-12-05T12:33:39;95685.34;;;5.24;75.29
68179;BME280;54998;42.656;23.382;2022-12-05T12:36:27;95693.09;;;5.23;75.50
68179;BME280;54998;42.656;23.382;2022-12-05T12:41:54;95684.53;;;4.93;76.05
68179;BME280;54998;42.656;23.382;2022-12-05T12:47:03;95693.97;;;4.91;76.95
68179;BME280;54998;42.656;23.382;2022-12-05T12:52:22;95682.91;;;4.92;76.50
68179;BME280;54998;42.656;23.382;2022-12-05T12:54:59;95681.31;;;4.90;76.98
68179;BME280;54998;42.656;23.382;2022-12-05T13:00:29;95683.78;;;4.91;76.78
68179;BME280;54998;42.656;23.382;2022-12-05T13:03:27;95679.22;;;4.82;77.13
68179;BME280;54998;42.656;23.382;2022-12-05T13:06:06;95675.84;;;4.82;77.03
68179;BME280;54998;42.656;23.382;2022-12-05T13:08:57;95674.78;;;4.70;77.67
68179;BME280;54998;42.656;23.382;2022-12-05T13:11:27;95667.69;;;4.61;77.76
68179;BME280;54998;42.656;23.382;2022-12-05T13:13:56;95670.22;;;4.61;77.94
68179;BME280;54998;42.656;23.382;2022-12-05T13:16:33;95680.06;;;4.51;78.43
68179;BME280;54998;42.656;23.382;2022-12-05T13:18:59;95677.25;;;4.71;77.53
68179;BME280;54998;42.656;23.382;2022-12-05T13:21:27;95671.25;;;4.72;77.16
68179;BME280;54998;42.656;23.382;2022-12-05T13:23:55;95673.25;;;4.67;77.78
68179;BME280;54998;42.656;23.382;2022-12-05T13:26:23;95678.03;;;4.58;78.42
68179;BME280;54998;42.656;23.382;2022-12-05T13:28:54;95683.66;;;4.63;78.37
68179;BME280;54998;42.656;23.382;2022-12-05T13:31:41;95672.84;;;4.59;78.36
68179;BME280;54998;42.656;23.382;2022-12-05T13:37:31;95682.13;;;4.60;78.25
68179;BME280;54998;42.656;23.382;2022-12-05T13:40:32;95671.47;;;4.53;78.47
68179;BME280;54998;42.656;23.382;2022-12-05T13:43:19;95675.88;;;4.50;78.38
68179;BME280;54998;42.656;23.382;2022-12-05T13:46:05;95679.84;;;4.56;78.70
68179;BME280;54998;42.656;23.382;2022-12-05T13:48:37;95679.56;;;4.60;78.69
68179;BME280;54998;42.656;23.382;2022-12-05T13:51:13;95673.50;;;4.63;78.04
68179;BME280;54998;42.656;23.382;2022-12-05T13:53:57;95678.41;;;4.66;78.10
68179;BME280;54998;42.656;23.382;2022-12-05T13:56:26;95676.72;;;4.66;77.84
68179;BME280;54998;42.656;23.382;2022-12-05T13:58:56;95679.06;;;4.69;77.80
68179;BME280;54998;42.656;23.382;2022-12-05T14:17:31;95682.13;;;4.60;78.54
68179;BME280;54998;42.656;23.382;2022-12-05T14:20:45;95684.75;;;4.59;78.20
68179;BME280;54998;42.656;23.382;2022-12-05T14:28:47;95685.88;;;4.69;78.33
68179;BME280;54998;42.656;23.382;2022-12-05T14:36:33;95684.81;;;4.57;78.35
68179;BME280;54998;42.656;23.382;2022-12-05T14:38:59;95683.00;;;4.59;78.69
68179;BME280;54998;42.656;23.382;2022-12-05T14:41:32;95691.78;;;4.69;78.36
68179;BME280;54998;42.656;23.382;2022-12-05T14:44:00;95684.81;;;4.57;78.62
68179;BME280;54998;42.656;23.382;2022-12-05T14:46:31;95688.56;;;4.66;78.18
68179;BME280;54998;42.656;23.382;2022-12-05T14:49:33;95692.28;;;4.60;78.59
68179;BME280;54998;42.656;23.382;2022-12-05T14:51:59;95693.09;;;4.61;78.91
68179;BME280;54998;42.656;23.382;2022-12-05T14:54:34;95685.56;;;4.59;78.55
68179;BME280;54998;42.656;23.382;2022-12-05T14:57:10;95692.69;;;4.68;78.73
68179;BME280;54998;42.656;23.382;2022-12-05T15:11:47;95685.44;;;4.77;79.08
68179;BME280;54998;42.656;23.382;2022-12-05T15:14:19;95682.09;;;4.76;79.23
68179;BME280;54998;42.656;23.382;2022-12-05T15:16:46;95684.47;;;4.63;79.43
68179;BME280;54998;42.656;23.382;2022-12-05T15:19:18;95682.53;;;4.68;78.96
68179;BME280;54998;42.656;23.382;2022-12-05T15:21:51;95683.59;;;4.64;78.93
68179;BME280;54998;42.656;23.382;2022-12-05T15:24:20;95681.19;;;4.61;79.22
68179;BME280;54998;42.656;23.382;2022-12-05T15:26:56;95688.09;;;4.59;79.30
68179;BME280;54998;42.656;23.382;2022-12-05T15:29:27;95680.94;;;4.66;79.55
68179;BME280;54998;42.656;23.382;2022-12-05T15:42:18;95685.88;;;4.53;81.17
68179;BME280;54998;42.656;23.382;2022-12-05T15:44:44;95678.09;;;4.56;81.03
68179;BME280;54998;42.656;23.382;2022-12-05T15:47:23;95681.88;;;4.65;80.49
68179;BME280;54998;42.656;23.382;2022-12-05T15:49:50;95687.50;;;4.70;80.29
68179;BME280;54998;42.656;23.382;2022-12-05T15:54:47;95676.78;;;4.65;80.33
68179;BME280;54998;42.656;23.382;2022-12-05T15:57:19;95683.75;;;4.61;80.91
68179;BME280;54998;42.656;23.382;2022-12-05T15:59:51;95685.28;;;4.64;81.24
68179;BME280;54998;42.656;23.382;2022-12-05T16:02:24;95681.63;;;4.53;81.25
68179;BME280;54998;42.656;23.382;2022-12-05T16:04:52;95688.78;;;4.47;81.89
68179;BME280;54998;42.656;23.382;2022-12-05T16:07:20;95684.81;;;4.41;81.70
68179;BME280;54998;42.656;23.382;2022-12-05T16:09:47;95680.72;;;4.39;82.41
68179;BME280;54998;42.656;23.382;2022-12-05T16:14:50;95680.06;;;4.35;82.87
68179;BME280;54998;42.656;23.382;2022-12-05T16:17:16;95685.06;;;4.37;83.03
68179;BME280;54998;42.656;23.382;2022-12-05T16:19:43;95681.47;;;4.41;82.84
68179;BME280;54998;42.656;23.382;2022-12-05T16:24:44;95687.19;;;4.28;82.63
68179;BME280;54998;42.656;23.382;2022-12-05T16:27:28;95690.88;;;4.23;83.33
68179;BME280;54998;42.656;23.382;2022-12-05T16:30:18;95686.38;;;4.28;83.89
68179;BME280;54998;42.656;23.382;2022-12-05T16:32:45;95693.34;;;4.24;83.96
68179;BME280;54998;42.656;23.382;2022-12-05T16:35:50;95689.19;;;4.23;84.69
68179;BME280;54998;42.656;23.382;2022-12-05T16:43:26;95686.06;;;4.34;82.78
68179;BME280;54998;42.656;23.382;2022-12-05T16:48:32;95679.31;;;4.33;82.52
68179;BME280;54998;42.656;23.382;2022-12-05T16:51:24;95669.41;;;4.28;82.59
68179;BME280;54998;42.656;23.382;2022-12-05T16:53:52;95665.00;;;4.32;82.85
68179;BME280;54998;42.656;23.382;2022-12-05T16:56:29;95669.22;;;4.31;82.79